createdAt,value
2022-08-25T00:00:01.960Z,1001.93
2022-08-25T00:05:01.533Z,1001.86
2022-08-25T00:10:01.970Z,1001.83
2022-08-25T00:15:01.840Z,1001.89
2022-08-25T00:20:01.304Z,1001.81
2022-08-25T00:25:01.455Z,1001.84
2022-08-25T00:30:01.189Z,1001.87
2022-08-25T00:35:01.623Z,1001.86
2022-08-25T00:40:02.023Z,1001.83
2022-08-25T00:45:01.703Z,1001.82
2022-08-25T00:50:02.075Z,1001.87
2022-08-25T00:55:08.022Z,1001.79
2022-08-25T01:00:01.759Z,1001.83
2022-08-25T01:05:01.628Z,1001.83
2022-08-25T01:10:01.308Z,1001.82
2022-08-25T01:15:02.064Z,1001.82
2022-08-25T01:20:01.200Z,1001.82
2022-08-25T01:25:01.579Z,1001.84
2022-08-25T01:30:01.272Z,1001.83
2022-08-25T01:35:01.876Z,1001.82
2022-08-25T01:40:03.032Z,1001.88
2022-08-25T01:45:01.389Z,1001.85
2022-08-25T01:50:01.438Z,1001.82
2022-08-25T01:55:01.333Z,1001.83
2022-08-25T02:00:01.266Z,1001.86
2022-08-25T02:05:01.201Z,1001.85
2022-08-25T02:10:03.185Z,1001.85
2022-08-25T02:15:01.492Z,1001.89
2022-08-25T02:20:01.556Z,1001.94
2022-08-25T02:25:01.239Z,1001.92
2022-08-25T02:30:01.286Z,1001.96
2022-08-25T02:35:01.963Z,1001.96
2022-08-25T02:40:01.329Z,1001.9
2022-08-25T02:45:01.956Z,1001.91
2022-08-25T02:50:01.202Z,1001.81
2022-08-25T02:55:01.241Z,1001.75
2022-08-25T03:00:01.179Z,1001.73
2022-08-25T03:05:01.587Z,1001.62
2022-08-25T03:10:02.070Z,1001.65
2022-08-25T03:15:01.992Z,1001.6
2022-08-25T03:20:01.960Z,1001.58
2022-08-25T03:25:01.455Z,1001.56
2022-08-25T03:30:01.205Z,1001.44
2022-08-25T03:35:02.027Z,1001.47
2022-08-25T03:40:01.606Z,1001.47
2022-08-25T03:45:01.185Z,1001.45
2022-08-25T03:50:01.678Z,1001.4
2022-08-25T03:55:01.660Z,1001.27
2022-08-25T04:00:02.571Z,1001.23
2022-08-25T04:05:01.182Z,1001.19
2022-08-25T04:10:01.171Z,1001.19
2022-08-25T04:15:01.668Z,1001.21
2022-08-25T04:20:01.404Z,1001.24
2022-08-25T04:25:01.585Z,1001.3
2022-08-25T04:30:01.230Z,1001.28
2022-08-25T04:35:01.264Z,1001.29
2022-08-25T04:40:01.813Z,1001.23
2022-08-25T04:45:01.662Z,1001.25
2022-08-25T04:50:01.976Z,1001.25
2022-08-25T04:55:01.491Z,1001.23
2022-08-25T05:00:01.713Z,1001.23
2022-08-25T05:05:01.659Z,1001.18
2022-08-25T05:10:01.517Z,1001.17
2022-08-25T05:15:01.235Z,1001.18
2022-08-25T05:20:01.982Z,1001.15
2022-08-25T05:25:01.655Z,1001.12
2022-08-25T05:30:01.686Z,1001.09
2022-08-25T05:35:01.772Z,1001.14
2022-08-25T05:40:01.354Z,1001.16
2022-08-25T05:45:01.643Z,1001.11
2022-08-25T05:50:01.388Z,1001.01
2022-08-25T05:55:01.865Z,1000.93
2022-08-25T06:00:01.890Z,1000.89
2022-08-25T06:05:01.733Z,1000.9
2022-08-25T06:10:01.355Z,1000.9
2022-08-25T06:15:01.995Z,1000.9
2022-08-25T06:20:01.354Z,1000.88
2022-08-25T06:25:01.694Z,1000.95
2022-08-25T06:30:07.898Z,1001.05
2022-08-25T06:35:01.624Z,1001.05
2022-08-25T06:40:01.467Z,1001.09
2022-08-25T06:45:01.802Z,1001.09
2022-08-25T06:50:01.703Z,1001.11
2022-08-25T06:55:01.731Z,1001.14
2022-08-25T07:00:01.655Z,1001.23
2022-08-25T07:05:01.914Z,1001.15
2022-08-25T07:10:01.422Z,1001.14
2022-08-25T07:15:19.410Z,1001.13
2022-08-25T07:20:01.303Z,1001.07
2022-08-25T07:25:02.039Z,1001.13
2022-08-25T07:30:02.042Z,1001.18
2022-08-25T07:35:01.563Z,1001.22
2022-08-25T07:40:02.126Z,1001.11
2022-08-25T07:45:01.826Z,1001.14
2022-08-25T07:50:02.099Z,1001.15
2022-08-25T07:55:01.913Z,1001.13
2022-08-25T08:00:02.005Z,1001.07
2022-08-25T08:05:01.813Z,1001.11
2022-08-25T08:10:29.650Z,1001.17
2022-08-25T08:15:01.380Z,1001.05
2022-08-25T08:20:01.646Z,1001.08
2022-08-25T08:25:01.961Z,1001.03
2022-08-25T08:30:01.262Z,1000.94
2022-08-25T08:35:02.166Z,1000.84
2022-08-25T08:40:03.345Z,1000.84
2022-08-25T08:45:02.668Z,1000.84
2022-08-25T08:50:01.658Z,1000.77
2022-08-25T08:55:01.438Z,1000.72
2022-08-25T09:00:01.838Z,1000.66
2022-08-25T09:05:01.608Z,1000.66
2022-08-25T09:10:01.222Z,1000.64
2022-08-25T09:15:01.672Z,1000.57
2022-08-25T09:20:01.247Z,1000.62
2022-08-25T09:25:03.418Z,1000.51
2022-08-25T09:30:01.700Z,1000.43
2022-08-25T09:35:01.435Z,1000.37
2022-08-25T09:40:01.931Z,1000.34
2022-08-25T09:45:01.797Z,1000.33
2022-08-25T09:50:01.553Z,1000.29
2022-08-25T09:55:01.463Z,1000.3
2022-08-25T10:00:01.161Z,1000.26
2022-08-25T10:05:02.242Z,1000.18
2022-08-25T10:10:01.823Z,1000.19
2022-08-25T10:15:01.375Z,1000.15
2022-08-25T10:20:01.464Z,1000.11
2022-08-25T10:25:01.460Z,1000.08
2022-08-25T10:30:02.839Z,1000.04
2022-08-25T10:35:02.014Z,999.97
2022-08-25T10:40:02.141Z,999.94
2022-08-25T10:45:01.240Z,999.86
2022-08-25T10:50:02.152Z,999.79
2022-08-25T10:55:02.135Z,999.79
2022-08-25T11:00:02.117Z,999.69
2022-08-25T11:05:01.421Z,999.66
2022-08-25T11:10:02.198Z,999.59
2022-08-25T11:15:02.071Z,999.59
2022-08-25T11:20:02.048Z,999.49
2022-08-25T11:25:01.482Z,999.37
2022-08-25T11:30:01.490Z,999.41
2022-08-25T11:35:02.098Z,999.42
2022-08-25T11:40:02.159Z,999.31
2022-08-25T11:45:01.779Z,999.24
2022-08-25T11:50:02.224Z,999.23
2022-08-25T11:55:01.385Z,999.27
2022-08-25T12:00:01.550Z,999.23
2022-08-25T12:05:02.174Z,999.19
2022-08-25T12:10:33.847Z,999.05
2022-08-25T12:15:02.055Z,998.98
2022-08-25T12:20:01.535Z,998.92
2022-08-25T12:25:01.790Z,998.88
2022-08-25T12:30:01.991Z,998.83
2022-08-25T12:35:01.979Z,998.82
2022-08-25T12:40:02.145Z,998.83
2022-08-25T12:45:01.226Z,998.8
2022-08-25T12:50:01.291Z,998.73
2022-08-25T12:55:01.596Z,998.68
2022-08-25T13:00:02.091Z,998.65
2022-08-25T13:05:01.315Z,998.62
2022-08-25T13:10:01.921Z,998.54
2022-08-25T13:15:01.990Z,998.51
2022-08-25T13:20:02.059Z,998.46
2022-08-25T13:25:01.814Z,998.46
2022-08-25T13:30:04.058Z,998.28
2022-08-25T13:35:01.312Z,998.3
2022-08-25T13:40:01.402Z,998.3
2022-08-25T13:45:01.831Z,998.18
2022-08-25T13:50:02.191Z,998.1
2022-08-25T13:55:04.792Z,998.17
2022-08-25T14:00:01.864Z,998.14
2022-08-25T14:05:02.077Z,998.13
2022-08-25T14:10:02.233Z,998.07
2022-08-25T14:15:02.083Z,997.97
2022-08-25T14:20:01.901Z,997.99
2022-08-25T14:25:01.253Z,998.01
2022-08-25T14:30:05.412Z,997.98
2022-08-25T14:35:07.415Z,997.93
2022-08-25T14:40:01.659Z,997.93
2022-08-25T14:45:01.754Z,997.87
2022-08-25T14:50:01.935Z,997.85
2022-08-25T14:55:01.746Z,997.76
2022-08-25T15:00:01.320Z,997.71
2022-08-25T15:05:01.441Z,997.64
2022-08-25T15:10:02.064Z,997.6
2022-08-25T15:15:01.580Z,997.57
2022-08-25T15:20:01.481Z,997.54
2022-08-25T15:25:01.914Z,997.51
2022-08-25T15:30:01.515Z,997.52
2022-08-25T15:35:01.878Z,997.51
2022-08-25T15:40:01.417Z,997.47
2022-08-25T15:45:01.861Z,997.42
2022-08-25T15:50:01.418Z,997.48
2022-08-25T15:55:01.705Z,997.46
2022-08-25T16:00:01.468Z,997.48
2022-08-25T16:05:01.759Z,997.34
2022-08-25T16:10:01.436Z,997.33
2022-08-25T16:15:01.732Z,997.33
2022-08-25T16:20:01.685Z,997.27
2022-08-25T16:25:02.049Z,997.31
2022-08-25T16:30:01.287Z,997.26
2022-08-25T16:35:01.991Z,997.24
2022-08-25T16:40:02.028Z,997.2
2022-08-25T16:45:01.427Z,997.16
2022-08-25T16:50:01.776Z,997.17
2022-08-25T16:55:01.229Z,997.16
2022-08-25T17:00:01.234Z,997.15
2022-08-25T17:05:01.632Z,997.19
2022-08-25T17:10:01.953Z,997.18
2022-08-25T17:15:01.581Z,997.2
2022-08-25T17:20:04.572Z,997.21
2022-08-25T17:25:02.025Z,997.2
2022-08-25T17:30:01.877Z,997.19
2022-08-25T17:35:04.371Z,997.22
2022-08-25T17:40:03.094Z,997.25
2022-08-25T17:45:01.360Z,997.29
2022-08-25T17:50:01.909Z,997.28
2022-08-25T17:55:02.001Z,997.33
2022-08-25T18:00:02.024Z,997.36
2022-08-25T18:05:02.135Z,997.36
2022-08-25T18:10:01.647Z,997.35
2022-08-25T18:15:01.561Z,997.37
2022-08-25T18:20:01.180Z,997.37
2022-08-25T18:25:01.146Z,997.4
2022-08-25T18:30:01.959Z,997.42
2022-08-25T18:35:02.036Z,997.46
2022-08-25T18:40:01.387Z,997.45
2022-08-25T18:45:02.116Z,997.5
2022-08-25T18:50:04.528Z,997.5
2022-08-25T18:55:01.497Z,997.53
2022-08-25T19:00:01.627Z,997.59
2022-08-25T19:05:07.435Z,997.59
2022-08-25T19:10:01.608Z,997.58
2022-08-25T19:15:01.513Z,997.57
2022-08-25T19:20:01.681Z,997.63
2022-08-25T19:25:01.556Z,997.63
2022-08-25T19:30:01.879Z,997.6
2022-08-25T19:35:01.885Z,997.62
2022-08-25T19:40:02.011Z,997.6
2022-08-25T19:45:01.347Z,997.58
2022-08-25T19:50:02.197Z,997.66
2022-08-25T19:55:01.175Z,997.67
2022-08-25T20:00:01.748Z,997.69
2022-08-25T20:05:01.199Z,997.69
2022-08-25T20:10:01.160Z,997.7
2022-08-25T20:15:01.915Z,997.76
2022-08-25T20:20:01.496Z,997.8
2022-08-25T20:25:01.168Z,997.82
2022-08-25T20:30:02.816Z,997.86
2022-08-25T20:35:01.247Z,997.83
2022-08-25T20:40:01.321Z,997.87
2022-08-25T20:45:01.557Z,997.91
2022-08-25T20:50:05.933Z,997.94
2022-08-25T20:55:02.119Z,997.9
2022-08-25T21:00:01.992Z,997.85
2022-08-25T21:05:01.793Z,997.83
2022-08-25T21:10:01.947Z,997.8
2022-08-25T21:15:01.602Z,997.85
2022-08-25T21:20:01.821Z,997.79
2022-08-25T21:25:01.253Z,997.75
2022-08-25T21:30:01.943Z,997.81
2022-08-25T21:35:01.871Z,997.81
2022-08-25T21:40:02.015Z,997.86
2022-08-25T21:45:01.465Z,997.89
2022-08-25T21:50:01.592Z,997.86
2022-08-25T21:55:01.956Z,997.91
2022-08-25T22:00:01.475Z,997.93
2022-08-25T22:05:01.172Z,997.91
2022-08-25T22:10:01.794Z,997.95
2022-08-25T22:15:01.724Z,997.95
2022-08-25T22:20:01.513Z,997.97
2022-08-25T22:25:01.662Z,997.96
2022-08-25T22:30:01.978Z,997.94
2022-08-25T22:35:01.927Z,997.92
2022-08-25T22:40:01.392Z,997.86
2022-08-25T22:45:01.586Z,997.85
2022-08-25T22:50:02.045Z,997.83
2022-08-25T22:55:01.554Z,997.88
2022-08-25T23:00:01.508Z,997.91
2022-08-25T23:05:02.202Z,997.87
2022-08-25T23:10:01.808Z,997.87
2022-08-25T23:15:01.864Z,997.86
2022-08-25T23:20:01.344Z,997.87
2022-08-25T23:25:01.251Z,997.98
2022-08-25T23:30:01.632Z,998.06
2022-08-25T23:35:01.647Z,998.32
2022-08-25T23:40:02.216Z,998.38
2022-08-25T23:45:01.242Z,998.42
2022-08-25T23:50:01.859Z,998.38
2022-08-25T23:55:01.215Z,998.44
